Time;durP1;ratioP1;P1;durP2;ratioP2;P2;SDS_P1;SDS_P2;PMS_P1;PMS_P2;Temp;Humidity;BMP_temperature;BMP_pressure;BME280_temperature;BME280_humidity;BME280_pressure;Samples;Min_cycle;Max_cycle;Signal;HPM_P1;HPM_P2
2024/04/05 00:01:56;;;;;;;56.40;2.73;;;;;;;;;;5070973;28;20494;-68
2024/04/05 00:04:23;;;;;;;57.40;3.10;;;;;;;;;;5069823;28;20883;-67
2024/04/05 00:06:49;;;;;;;57.53;2.97;;;;;;;;;;5072306;28;20444;-68
2024/04/05 00:09:16;;;;;;;57.57;2.50;;;;;;;;;;5072535;28;20976;-67
2024/04/05 00:11:42;;;;;;;56.90;2.90;;;;;;;;;;5071912;28;20479;-68
2024/04/05 00:14:09;;;;;;;57.63;2.90;;;;;;;;;;5069519;28;20574;-68
2024/04/05 00:16:37;;;;;;;59.40;3.70;;;;;;;;;;5072414;28;20448;-68
2024/04/05 00:19:04;;;;;;;57.00;2.93;;;;;;;;;;5072495;28;20506;-68
2024/04/05 00:21:30;;;;;;;56.40;2.83;;;;;;;;;;5069745;28;20460;-68
2024/04/05 00:24:00;;;;;;;60.30;3.20;;;;;;;;;;5072614;28;20534;-68
2024/04/05 00:26:27;;;;;;;56.67;3.37;;;;;;;;;;5072312;28;20546;-67
2024/04/05 00:28:54;;;;;;;59.03;3.60;;;;;;;;;;5071856;28;21059;-68
2024/04/05 00:31:20;;;;;;;56.47;2.93;;;;;;;;;;5069589;28;20448;-67
2024/04/05 00:33:48;;;;;;;57.47;3.17;;;;;;;;;;5071890;28;20452;-67
2024/04/05 00:36:15;;;;;;;56.50;3.33;;;;;;;;;;5072054;28;20486;-67
2024/04/05 00:38:42;;;;;;;57.23;3.40;;;;;;;;;;5071879;28;20475;-67
2024/04/05 00:41:08;;;;;;;57.87;3.67;;;;;;;;;;5071439;28;20458;-68
2024/04/05 00:43:35;;;;;;;59.53;2.57;;;;;;;;;;5065392;28;20459;-67
2024/04/05 00:46:04;;;;;;;57.70;3.20;;;;;;;;;;5071439;28;20970;-67
2024/04/05 00:48:32;;;;;;;56.60;2.63;;;;;;;;;;5071302;28;20557;-67
2024/04/05 00:50:59;;;;;;;56.27;2.80;;;;;;;;;;5071025;28;20452;-67
2024/04/05 00:53:29;;;;;;;57.80;3.07;;;;;;;;;;5070117;28;20462;-67
2024/04/05 00:55:56;;;;;;;56.37;2.90;;;;;;;;;;5071707;28;20451;-67
2024/04/05 00:58:23;;;;;;;55.97;2.90;;;;;;;;;;5071583;28;20464;-67
2024/04/05 01:00:49;;;;;;;57.00;3.50;;;;;;;;;;5070947;28;20440;-67
2024/04/05 01:03:16;;;;;;;59.80;4.37;;;;;;;;;;5070999;28;20643;-68
2024/04/05 01:05:43;;;;;;;56.60;3.40;;;;;;;;;;5071167;28;20483;-67
2024/04/05 01:08:14;;;;;;;57.73;4.00;;;;;;;;;;5071511;28;20823;-68
2024/04/05 01:10:40;;;;;;;61.80;3.50;;;;;;;;;;5070996;28;20444;-68
2024/04/05 01:13:08;;;;;;;59.50;3.43;;;;;;;;;;5070899;28;20816;-68
2024/04/05 01:15:35;;;;;;;56.17;3.40;;;;;;;;;;5070978;28;20451;-67
2024/04/05 01:18:03;;;;;;;57.87;3.77;;;;;;;;;;5071186;28;20495;-67
2024/04/05 01:20:30;;;;;;;56.60;3.23;;;;;;;;;;5070798;28;20467;-68
2024/04/05 01:23:00;;;;;;;61.53;3.67;;;;;;;;;;5070573;28;20448;-68
2024/04/05 01:25:28;;;;;;;58.07;3.70;;;;;;;;;;5071017;28;20952;-67
2024/04/05 01:27:55;;;;;;;59.73;3.73;;;;;;;;;;5066475;28;20558;-67
2024/04/05 01:30:21;;;;;;;58.50;3.50;;;;;;;;;;5070590;28;20452;-67
2024/04/05 01:32:49;;;;;;;56.97;3.77;;;;;;;;;;5070725;28;20469;-67
2024/04/05 01:35:16;;;;;;;57.43;3.40;;;;;;;;;;5068664;28;20455;-67
2024/04/05 01:37:43;;;;;;;58.77;3.60;;;;;;;;;;5071477;28;20450;-67
2024/04/05 01:40:09;;;;;;;58.20;4.23;;;;;;;;;;5070829;28;20457;-67
2024/04/05 01:42:38;;;;;;;59.90;3.40;;;;;;;;;;5070968;28;20824;-67
2024/04/05 01:45:04;;;;;;;58.53;3.20;;;;;;;;;;5070812;28;20448;-67
2024/04/05 01:47:31;;;;;;;58.57;3.90;;;;;;;;;;5069242;28;20474;-67
2024/04/05 01:49:57;;;;;;;57.77;3.53;;;;;;;;;;5071923;28;20455;-67
2024/04/05 01:52:24;;;;;;;58.87;4.03;;;;;;;;;;5073701;28;20478;-67
2024/04/05 01:54:52;;;;;;;57.60;3.50;;;;;;;;;;5068141;28;20444;-68
2024/04/05 01:57:19;;;;;;;56.70;3.40;;;;;;;;;;5074815;28;20482;-67
2024/04/05 01:59:50;;;;;;;57.50;3.43;;;;;;;;;;5074424;28;20475;-67
2024/04/05 02:02:17;;;;;;;57.40;3.27;;;;;;;;;;5074230;28;20447;-68
2024/04/05 02:04:43;;;;;;;60.07;3.80;;;;;;;;;;5073602;28;20459;-67
2024/04/05 02:07:10;;;;;;;58.23;3.10;;;;;;;;;;5074658;28;20475;-67
2024/04/05 02:09:37;;;;;;;58.00;3.60;;;;;;;;;;5073823;28;21025;-67
2024/04/05 02:12:04;;;;;;;59.00;3.27;;;;;;;;;;5073687;28;20444;-68
2024/04/05 02:14:30;;;;;;;57.97;3.27;;;;;;;;;;5073521;28;20459;-67
2024/04/05 02:17:00;;;;;;;58.13;3.60;;;;;;;;;;5074048;28;20448;-67
2024/04/05 02:19:26;;;;;;;57.90;3.23;;;;;;;;;;5074240;28;20460;-67
2024/04/05 02:21:53;;;;;;;56.67;3.07;;;;;;;;;;5073617;28;20446;-69
2024/04/05 02:24:19;;;;;;;59.00;3.10;;;;;;;;;;5073565;28;20833;-67
2024/04/05 02:26:46;;;;;;;57.90;3.17;;;;;;;;;;5073727;28;20543;-67
2024/04/05 02:29:12;;;;;;;56.70;3.43;;;;;;;;;;5073643;28;20491;-67
2024/04/05 02:31:40;;;;;;;57.73;3.40;;;;;;;;;;5073238;28;20823;-67
2024/04/05 02:34:08;;;;;;;59.00;3.50;;;;;;;;;;5072786;28;20557;-67
2024/04/05 02:36:35;;;;;;;60.10;3.17;;;;;;;;;;5073713;28;20478;-67
2024/04/05 02:39:02;;;;;;;58.37;3.53;;;;;;;;;;5073478;28;20474;-67
2024/04/05 02:41:30;;;;;;;59.33;3.60;;;;;;;;;;5073224;28;20490;-67
2024/04/05 02:43:56;;;;;;;60.57;3.70;;;;;;;;;;5065008;28;20535;-68
2024/04/05 02:46:23;;;;;;;58.47;3.73;;;;;;;;;;5073665;28;20446;-68
2024/04/05 02:48:49;;;;;;;58.57;3.80;;;;;;;;;;5073105;28;20487;-67
2024/04/05 02:51:18;;;;;;;58.37;3.33;;;;;;;;;;5073176;28;20447;-67
2024/04/05 02:53:44;;;;;;;59.33;3.43;;;;;;;;;;5072965;28;20498;-68
2024/04/05 02:56:12;;;;;;;57.03;3.57;;;;;;;;;;5073365;28;20990;-67
2024/04/05 02:58:38;;;;;;;58.70;3.97;;;;;;;;;;5073452;28;20464;-67
2024/04/05 03:01:05;;;;;;;58.07;3.60;;;;;;;;;;5072559;28;20444;-67
2024/04/05 03:03:31;;;;;;;58.97;3.67;;;;;;;;;;5072473;28;20460;-67
2024/04/05 03:05:58;;;;;;;57.10;3.20;;;;;;;;;;5073149;28;20486;-67
2024/04/05 03:08:26;;;;;;;59.17;3.30;;;;;;;;;;5072844;28;20993;-68
2024/04/05 03:10:53;;;;;;;62.97;3.87;;;;;;;;;;5070051;28;20943;-66
2024/04/05 03:13:19;;;;;;;56.20;3.00;;;;;;;;;;5071566;28;20465;-67
2024/04/05 03:15:47;;;;;;;57.07;3.13;;;;;;;;;;5072540;28;20452;-67
2024/04/05 03:18:13;;;;;;;58.77;3.17;;;;;;;;;;5072947;28;20474;-67
2024/04/05 03:20:40;;;;;;;57.70;3.07;;;;;;;;;;5072267;28;20498;-68
2024/04/05 03:23:07;;;;;;;58.60;3.67;;;;;;;;;;5072530;28;20444;-68
2024/04/05 03:25:35;;;;;;;57.17;3.33;;;;;;;;;;5073121;28;20448;-67
2024/04/05 03:28:01;;;;;;;56.20;2.80;;;;;;;;;;5072548;28;20488;-68
2024/04/05 03:30:29;;;;;;;57.67;3.63;;;;;;;;;;5072587;28;20475;-68
2024/04/05 03:32:55;;;;;;;57.70;3.60;;;;;;;;;;5073162;28;20482;-68
2024/04/05 03:35:22;;;;;;;56.43;3.10;;;;;;;;;;5072175;28;20482;-68
2024/04/05 03:37:53;;;;;;;57.97;3.80;;;;;;;;;;5072559;28;20468;-68
2024/04/05 03:40:20;;;;;;;57.77;3.13;;;;;;;;;;5071950;28;20447;-68
2024/04/05 03:42:48;;;;;;;57.13;3.07;;;;;;;;;;5072093;28;20448;-68
2024/04/05 03:45:15;;;;;;;57.67;3.13;;;;;;;;;;5071860;28;20448;-68
2024/04/05 03:47:42;;;;;;;57.97;3.67;;;;;;;;;;5072013;28;20902;-68
2024/04/05 03:50:08;;;;;;;56.73;3.20;;;;;;;;;;5071508;28;20955;-68
2024/04/05 03:52:36;;;;;;;61.60;3.80;;;;;;;;;;5071210;28;20919;-67
2024/04/05 03:55:04;;;;;;;57.87;2.97;;;;;;;;;;5071627;28;20482;-68
2024/04/05 03:57:31;;;;;;;58.70;3.10;;;;;;;;;;5071833;28;20452;-67
2024/04/05 03:59:59;;;;;;;56.60;3.43;;;;;;;;;;5068314;28;20727;-67
2024/04/05 04:02:26;;;;;;;57.20;3.87;;;;;;;;;;5067780;28;20450;-67
2024/04/05 04:04:53;;;;;;;56.17;3.20;;;;;;;;;;5069830;28;20555;-67
2024/04/05 04:07:19;;;;;;;56.40;2.97;;;;;;;;;;5071972;28;20502;-67
2024/04/05 04:09:47;;;;;;;60.00;3.17;;;;;;;;;;5071534;28;20999;-67
2024/04/05 04:12:13;;;;;;;57.47;3.40;;;;;;;;;;5070577;28;20455;-67
2024/04/05 04:14:41;;;;;;;56.87;3.40;;;;;;;;;;5071406;28;20447;-67
2024/04/05 04:17:09;;;;;;;57.67;3.83;;;;;;;;;;5071857;28;21003;-67
2024/04/05 04:19:36;;;;;;;58.00;3.80;;;;;;;;;;5071270;28;20979;-67
2024/04/05 04:22:03;;;;;;;56.90;3.53;;;;;;;;;;5071141;28;20454;-67
2024/04/05 04:24:30;;;;;;;56.77;2.70;;;;;;;;;;5071272;28;20544;-67
2024/04/05 04:26:56;;;;;;;59.00;3.63;;;;;;;;;;5071319;28;20452;-67
2024/04/05 04:29:23;;;;;;;56.47;3.17;;;;;;;;;;5071571;28;20578;-67
2024/04/05 04:31:50;;;;;;;56.67;3.70;;;;;;;;;;5071132;28;20448;-67
2024/04/05 04:34:19;;;;;;;61.63;3.00;;;;;;;;;;5071294;28;20507;-67
2024/04/05 04:36:45;;;;;;;65.40;4.43;;;;;;;;;;5069589;28;20809;-67
2024/04/05 04:39:12;;;;;;;60.37;4.20;;;;;;;;;;5071993;28;20474;-67
2024/04/05 04:41:38;;;;;;;59.77;3.73;;;;;;;;;;5071826;28;20444;-67
2024/04/05 04:44:06;;;;;;;59.07;4.13;;;;;;;;;;5071942;28;20534;-67
2024/04/05 04:46:32;;;;;;;60.30;3.53;;;;;;;;;;5071731;28;20456;-67
2024/04/05 04:49:00;;;;;;;58.67;3.17;;;;;;;;;;5072197;28;20491;-67
2024/04/05 04:51:27;;;;;;;57.03;4.20;;;;;;;;;;5071560;28;20967;-67
2024/04/05 04:53:56;;;;;;;58.20;3.60;;;;;;;;;;5071446;28;20597;-68
2024/04/05 04:56:22;;;;;;;58.80;3.87;;;;;;;;;;5071834;28;20464;-67
2024/04/05 04:58:50;;;;;;;59.37;3.83;;;;;;;;;;5071750;28;20875;-67
2024/04/05 05:01:16;;;;;;;58.50;3.93;;;;;;;;;;5071552;28;20483;-67
2024/04/05 05:03:43;;;;;;;56.87;3.90;;;;;;;;;;5071357;28;20866;-67
2024/04/05 05:06:09;;;;;;;57.87;3.70;;;;;;;;;;5072006;28;20454;-67
2024/04/05 05:08:37;;;;;;;60.93;4.20;;;;;;;;;;5071764;28;20514;-67
2024/04/05 05:11:05;;;;;;;56.83;3.60;;;;;;;;;;5064022;28;20443;-67
2024/04/05 05:13:33;;;;;;;58.60;4.10;;;;;;;;;;5071971;28;20448;-67
2024/04/05 05:15:59;;;;;;;58.73;4.10;;;;;;;;;;5072630;28;20448;-67
2024/04/05 05:18:26;;;;;;;58.80;3.93;;;;;;;;;;5071823;28;20466;-67
2024/04/05 05:20:52;;;;;;;63.27;3.90;;;;;;;;;;5071324;28;20452;-68
2024/04/05 05:23:19;;;;;;;57.00;3.80;;;;;;;;;;5071964;28;20527;-67
2024/04/05 05:25:47;;;;;;;58.87;4.10;;;;;;;;;;5074709;28;20940;-67
2024/04/05 05:28:14;;;;;;;56.90;3.90;;;;;;;;;;5075834;28;20482;-67
2024/04/05 05:30:40;;;;;;;57.67;4.20;;;;;;;;;;5075495;28;20455;-67
2024/04/05 05:33:07;;;;;;;59.87;4.60;;;;;;;;;;5075654;28;20452;-67
2024/04/05 05:35:34;;;;;;;57.50;4.30;;;;;;;;;;5075245;28;20462;-67
2024/04/05 05:38:01;;;;;;;60.47;4.47;;;;;;;;;;5075376;28;20831;-67
2024/04/05 05:40:27;;;;;;;59.60;5.13;;;;;;;;;;5075100;28;20440;-67
2024/04/05 05:42:56;;;;;;;59.90;4.60;;;;;;;;;;5075422;28;20788;-67
2024/04/05 05:45:22;;;;;;;61.90;4.97;;;;;;;;;;5075866;28;20448;-67
2024/04/05 05:47:53;;;;;;;59.97;4.30;;;;;;;;;;5075725;28;20499;-67
2024/04/05 05:50:19;;;;;;;62.60;5.07;;;;;;;;;;5075371;28;20492;-67
2024/04/05 05:52:46;;;;;;;63.90;4.80;;;;;;;;;;5067578;28;20475;-67
2024/04/05 05:55:13;;;;;;;60.80;4.80;;;;;;;;;;5075710;28;20451;-67
2024/04/05 05:57:40;;;;;;;58.70;4.40;;;;;;;;;;5067311;28;20451;-67
2024/04/05 06:00:09;;;;;;;61.07;4.60;;;;;;;;;;5075525;28;20827;-67
2024/04/05 06:02:37;;;;;;;59.43;5.00;;;;;;;;;;5075915;28;20807;-67
2024/04/05 06:05:04;;;;;;;61.57;6.30;;;;;;;;;;5075917;28;20436;-67
2024/04/05 06:07:31;;;;;;;60.97;4.80;;;;;;;;;;5075480;28;20941;-68
2024/04/05 06:09:58;;;;;;;59.43;5.13;;;;;;;;;;5074911;28;20904;-68
2024/04/05 06:12:26;;;;;;;59.10;4.73;;;;;;;;;;5075242;28;20563;-68
2024/04/05 06:14:53;;;;;;;59.47;5.10;;;;;;;;;;5066892;28;20467;-66
2024/04/05 06:17:21;;;;;;;58.20;5.23;;;;;;;;;;5075200;28;20444;-67
2024/04/05 06:19:52;;;;;;;57.30;4.73;;;;;;;;;;5075068;28;20564;-68
2024/04/05 06:22:19;;;;;;;59.87;5.20;;;;;;;;;;5075323;28;20452;-68
2024/04/05 06:24:48;;;;;;;61.03;5.03;;;;;;;;;;5075127;28;20447;-68
2024/04/05 06:27:16;;;;;;;59.57;4.80;;;;;;;;;;5074853;28;20483;-67
2024/04/05 06:29:42;;;;;;;59.37;4.90;;;;;;;;;;5074835;28;20487;-67
2024/04/05 06:32:09;;;;;;;59.50;4.90;;;;;;;;;;5074082;28;20447;-66
2024/04/05 06:34:39;;;;;;;58.40;4.43;;;;;;;;;;5074107;28;20547;-67
2024/04/05 06:37:07;;;;;;;57.77;4.33;;;;;;;;;;5073635;28;20447;-67
2024/04/05 06:39:33;;;;;;;58.23;4.60;;;;;;;;;;5074140;28;20460;-66
2024/04/05 06:42:00;;;;;;;58.50;4.87;;;;;;;;;;5073243;28;20543;-67
2024/04/05 06:44:26;;;;;;;57.10;4.10;;;;;;;;;;5065474;28;20448;-67
2024/04/05 06:46:53;;;;;;;60.80;3.80;;;;;;;;;;5073936;28;20452;-67
2024/04/05 06:49:19;;;;;;;60.30;3.87;;;;;;;;;;5073836;28;20510;-67
2024/04/05 06:51:48;;;;;;;61.33;4.00;;;;;;;;;;5073304;28;20452;-67
2024/04/05 06:54:16;;;;;;;57.87;3.67;;;;;;;;;;5073526;28;20527;-67
2024/04/05 06:56:43;;;;;;;57.70;3.57;;;;;;;;;;5073770;28;20505;-67
2024/04/05 06:59:09;;;;;;;59.07;3.00;;;;;;;;;;5073819;28;20964;-67
2024/04/05 07:01:36;;;;;;;58.30;4.00;;;;;;;;;;5073513;28;20452;-67
2024/04/05 07:04:03;;;;;;;57.10;3.40;;;;;;;;;;5073656;28;20450;-68
2024/04/05 07:09:34;;;;;;;56.70;3.27;;;;;;;;;;5071936;28;20532;-68
2024/04/05 07:12:04;;;;;;;59.47;3.30;;;;;;;;;;5073625;28;20462;-68
2024/04/05 07:14:32;;;;;;;57.07;3.37;;;;;;;;;;5074296;28;20525;-68
2024/04/05 07:16:58;;;;;;;56.60;3.37;;;;;;;;;;5074560;28;20452;-68
2024/04/05 07:19:26;;;;;;;57.43;3.17;;;;;;;;;;5074820;28;20468;-68
2024/04/05 07:21:52;;;;;;;56.50;2.77;;;;;;;;;;5073877;28;20458;-68
2024/04/05 07:24:21;;;;;;;57.50;3.10;;;;;;;;;;5074633;28;20479;-68
2024/04/05 07:26:48;;;;;;;57.33;3.10;;;;;;;;;;5074755;28;20460;-68
2024/04/05 07:29:15;;;;;;;56.60;3.17;;;;;;;;;;5062153;28;20504;-68
2024/04/05 07:31:42;;;;;;;60.80;3.10;;;;;;;;;;5053760;28;20456;-68
2024/04/05 07:34:09;;;;;;;56.77;2.67;;;;;;;;;;5054249;28;20453;-68
2024/04/05 07:36:35;;;;;;;62.27;3.30;;;;;;;;;;5054619;28;20457;-67
2024/04/05 07:39:04;;;;;;;57.30;3.47;;;;;;;;;;5054535;28;20503;-67
2024/04/05 07:41:30;;;;;;;58.20;2.60;;;;;;;;;;5052796;28;20445;-67
2024/04/05 07:43:59;;;;;;;57.17;3.20;;;;;;;;;;5072040;28;20462;-66
2024/04/05 07:46:27;;;;;;;58.57;3.20;;;;;;;;;;5073711;28;20509;-67
2024/04/05 07:48:54;;;;;;;57.77;3.60;;;;;;;;;;5073330;28;20483;-66
2024/04/05 07:51:20;;;;;;;59.60;3.30;;;;;;;;;;5073259;28;20475;-68
2024/04/05 07:53:48;;;;;;;57.30;3.10;;;;;;;;;;5073441;28;20454;-67
2024/04/05 07:56:14;;;;;;;59.27;3.13;;;;;;;;;;5073638;28;20447;-68
2024/04/05 07:58:41;;;;;;;57.90;2.67;;;;;;;;;;5073730;28;20472;-67
2024/04/05 08:01:10;;;;;;;56.50;2.80;;;;;;;;;;5073030;28;20458;-67
2024/04/05 08:03:37;;;;;;;57.17;2.73;;;;;;;;;;5073292;28;20454;-68
2024/04/05 08:06:03;;;;;;;59.13;3.10;;;;;;;;;;5072911;28;20447;-67
2024/04/05 08:08:30;;;;;;;57.10;2.87;;;;;;;;;;5072630;28;20467;-67
2024/04/05 08:11:00;;;;;;;56.60;2.83;;;;;;;;;;5072610;28;20510;-67
2024/04/05 08:13:27;;;;;;;60.27;2.70;;;;;;;;;;5073425;28;20547;-67
2024/04/05 08:15:53;;;;;;;56.40;2.30;;;;;;;;;;5073291;28;20452;-67
2024/04/05 08:18:22;;;;;;;57.07;3.00;;;;;;;;;;5073823;28;20467;-67
2024/04/05 08:20:48;;;;;;;56.53;2.70;;;;;;;;;;5073016;28;20444;-66
2024/04/05 08:23:15;;;;;;;57.53;2.67;;;;;;;;;;5073333;28;20471;-67
2024/04/05 08:25:41;;;;;;;57.30;2.47;;;;;;;;;;5072799;28;20451;-67
2024/04/05 08:28:08;;;;;;;55.90;2.30;;;;;;;;;;5073260;28;20562;-67
2024/04/05 08:30:34;;;;;;;60.50;2.53;;;;;;;;;;5072954;28;20502;-67
2024/04/05 08:33:03;;;;;;;57.63;2.80;;;;;;;;;;5073095;28;20443;-67
2024/04/05 08:35:31;;;;;;;56.20;2.50;;;;;;;;;;5072556;28;20459;-67
2024/04/05 08:38:02;;;;;;;56.00;2.60;;;;;;;;;;5072675;28;20498;-67
2024/04/05 08:40:28;;;;;;;60.77;2.60;;;;;;;;;;5072548;28;20441;-67
2024/04/05 08:43:01;;;;;;;57.20;2.77;;;;;;;;;;5072767;28;20458;-67
2024/04/05 08:45:30;;;;;;;58.23;2.40;;;;;;;;;;5072685;28;20955;-67
2024/04/05 08:47:57;;;;;;;55.67;2.40;;;;;;;;;;5073424;28;20533;-67
2024/04/05 08:50:25;;;;;;;57.97;2.57;;;;;;;;;;5071939;28;20491;-67
2024/04/05 08:52:53;;;;;;;56.10;2.20;;;;;;;;;;5072158;28;20444;-68
2024/04/05 08:55:19;;;;;;;56.57;2.53;;;;;;;;;;5072879;28;20452;-67
2024/04/05 08:57:47;;;;;;;57.60;2.60;;;;;;;;;;5056323;28;20461;-68
2024/04/05 09:00:22;;;;;;;57.20;2.60;;;;;;;;;;5076003;28;20442;-67
2024/04/05 09:02:51;;;;;;;57.00;2.80;;;;;;;;;;5076593;28;20501;-67
2024/04/05 09:05:17;;;;;;;55.90;2.43;;;;;;;;;;5069053;28;20864;-67
2024/04/05 09:07:44;;;;;;;57.53;2.70;;;;;;;;;;5076747;28;20474;-67
2024/04/05 09:10:14;;;;;;;56.30;2.80;;;;;;;;;;5075786;28;21026;-67
2024/04/05 09:12:50;;;;;;;57.03;2.73;;;;;;;;;;5076460;28;20497;-67
2024/04/05 09:15:17;;;;;;;57.00;2.60;;;;;;;;;;5068162;28;20440;-67
2024/04/05 09:17:46;;;;;;;56.97;2.30;;;;;;;;;;5076053;28;20473;-67
2024/04/05 09:20:19;;;;;;;56.10;2.73;;;;;;;;;;5075472;28;20450;-68
2024/04/05 09:22:47;;;;;;;59.27;3.30;;;;;;;;;;5075478;28;20474;-68
2024/04/05 09:25:16;;;;;;;62.03;2.70;;;;;;;;;;5075932;28;20440;-68
2024/04/05 09:27:43;;;;;;;57.10;2.57;;;;;;;;;;5075618;28;20455;-68
2024/04/05 09:30:10;;;;;;;56.17;2.70;;;;;;;;;;5074698;28;20490;-68
2024/04/05 09:32:37;;;;;;;57.30;2.60;;;;;;;;;;5075717;28;20865;-67
2024/04/05 09:35:03;;;;;;;57.17;2.40;;;;;;;;;;5056813;28;20526;-67
2024/04/05 09:37:32;;;;;;;56.97;2.40;;;;;;;;;;5055521;28;20499;-67
2024/04/05 09:39:58;;;;;;;56.50;2.53;;;;;;;;;;5054798;28;20488;-67
2024/04/05 09:42:28;;;;;;;56.67;2.30;;;;;;;;;;5055126;28;20506;-68
2024/04/05 09:44:55;;;;;;;61.37;2.63;;;;;;;;;;5055664;28;20523;-68
2024/04/05 09:47:23;;;;;;;57.70;2.60;;;;;;;;;;5055250;28;21002;-67
2024/04/05 09:49:49;;;;;;;55.90;2.27;;;;;;;;;;5055380;28;20993;-67
2024/04/05 09:52:20;;;;;;;62.50;2.40;;;;;;;;;;5057932;28;20793;-67
2024/04/05 09:54:47;;;;;;;57.30;2.60;;;;;;;;;;5074977;28;20459;-68
2024/04/05 09:57:15;;;;;;;56.30;2.40;;;;;;;;;;5055125;28;20451;-68
2024/04/05 09:59:46;;;;;;;55.93;2.20;;;;;;;;;;5055236;28;20491;-68
2024/04/05 10:02:13;;;;;;;56.40;2.47;;;;;;;;;;5054749;28;20972;-67
2024/04/05 10:04:40;;;;;;;55.97;2.70;;;;;;;;;;5055157;28;20536;-68
2024/04/05 10:07:07;;;;;;;56.50;2.60;;;;;;;;;;5054638;28;20448;-68
2024/04/05 10:09:34;;;;;;;57.10;2.50;;;;;;;;;;5054464;28;20480;-68
2024/04/05 10:12:11;;;;;;;56.20;2.30;;;;;;;;;;5053381;28;20847;-68
2024/04/05 10:14:38;;;;;;;57.03;2.30;;;;;;;;;;5054488;28;20454;-68
2024/04/05 10:17:11;;;;;;;55.97;2.23;;;;;;;;;;5054513;28;20538;-67
2024/04/05 10:19:38;;;;;;;57.17;2.67;;;;;;;;;;5054416;28;20475;-68
2024/04/05 10:22:05;;;;;;;56.07;2.03;;;;;;;;;;5053924;28;20483;-68
2024/04/05 10:24:31;;;;;;;56.63;2.53;;;;;;;;;;5055177;28;20531;-68
2024/04/05 10:26:59;;;;;;;57.13;3.10;;;;;;;;;;5055319;28;20458;-68
2024/04/05 10:29:25;;;;;;;56.77;2.50;;;;;;;;;;5055415;28;20486;-68
2024/04/05 10:32:01;;;;;;;56.07;2.07;;;;;;;;;;5055055;28;20874;-67
2024/04/05 10:34:28;;;;;;;56.00;2.20;;;;;;;;;;5066867;28;20964;-67
2024/04/05 10:36:57;;;;;;;55.80;2.10;;;;;;;;;;5074734;28;20493;-68
2024/04/05 10:39:23;;;;;;;59.00;2.20;;;;;;;;;;5075105;28;20817;-68
2024/04/05 10:41:50;;;;;;;56.50;1.93;;;;;;;;;;5075187;28;20448;-68
2024/04/05 10:44:18;;;;;;;56.00;1.93;;;;;;;;;;5073354;28;20451;-67
2024/04/05 10:46:48;;;;;;;56.50;2.10;;;;;;;;;;5073599;28;20445;-68
2024/04/05 10:49:14;;;;;;;56.27;2.50;;;;;;;;;;5073203;28;20472;-67
2024/04/05 10:51:43;;;;;;;55.67;2.00;;;;;;;;;;5073406;28;20454;-68
2024/04/05 10:54:10;;;;;;;61.03;2.40;;;;;;;;;;5073434;28;20953;-68
2024/04/05 10:56:39;;;;;;;56.00;2.00;;;;;;;;;;5067800;28;20753;-68
2024/04/05 10:59:07;;;;;;;55.37;1.87;;;;;;;;;;5053462;28;21021;-68
2024/04/05 11:01:35;;;;;;;57.57;2.23;;;;;;;;;;5058363;28;20449;-68
2024/04/05 11:04:01;;;;;;;56.00;2.20;;;;;;;;;;5073667;28;20452;-68
2024/04/05 11:06:28;;;;;;;55.37;2.03;;;;;;;;;;5073685;28;20950;-68
2024/04/05 11:08:56;;;;;;;57.07;2.50;;;;;;;;;;5073457;28;20508;-68
2024/04/05 11:11:23;;;;;;;55.87;2.10;;;;;;;;;;5073141;28;20589;-68
2024/04/05 11:13:49;;;;;;;56.03;2.07;;;;;;;;;;5073128;28;20455;-68
2024/04/05 11:16:17;;;;;;;57.47;2.27;;;;;;;;;;5073001;28;21466;-68
2024/04/05 11:18:44;;;;;;;56.87;2.20;;;;;;;;;;5072974;28;20477;-68
2024/04/05 11:21:16;;;;;;;57.20;2.17;;;;;;;;;;5072460;28;20475;-67
2024/04/05 11:23:49;;;;;;;56.70;2.37;;;;;;;;;;5072499;28;20968;-68
2024/04/05 11:26:22;;;;;;;57.03;1.90;;;;;;;;;;5072841;28;20444;-67
2024/04/05 11:28:48;;;;;;;56.83;1.80;;;;;;;;;;5072702;28;20574;-68
2024/04/05 11:31:15;;;;;;;56.50;2.30;;;;;;;;;;5072058;28;20484;-68
2024/04/05 11:33:41;;;;;;;55.80;1.97;;;;;;;;;;5072710;28;20462;-68
2024/04/05 11:36:09;;;;;;;57.53;2.17;;;;;;;;;;5072714;28;20466;-67
2024/04/05 11:38:36;;;;;;;57.40;2.10;;;;;;;;;;5072652;28;20467;-67
2024/04/05 11:41:03;;;;;;;56.37;2.07;;;;;;;;;;5072071;28;20447;-67
2024/04/05 11:43:31;;;;;;;55.77;2.00;;;;;;;;;;5072005;28;20975;-67
2024/04/05 11:45:58;;;;;;;57.00;2.47;;;;;;;;;;5072402;28;20484;-67
2024/04/05 11:48:24;;;;;;;57.13;2.20;;;;;;;;;;5072550;28;20468;-67
2024/04/05 11:50:51;;;;;;;56.07;2.10;;;;;;;;;;5071701;28;20938;-67
2024/04/05 11:53:17;;;;;;;56.50;2.57;;;;;;;;;;5072018;28;20456;-67
2024/04/05 11:55:44;;;;;;;58.00;2.40;;;;;;;;;;5072121;28;20497;-67
2024/04/05 11:58:11;;;;;;;56.00;2.40;;;;;;;;;;5072210;28;20471;-67
2024/04/05 12:00:40;;;;;;;56.10;2.00;;;;;;;;;;5072001;28;20448;-67
2024/04/05 12:03:06;;;;;;;56.23;2.10;;;;;;;;;;5061933;28;20541;-67
2024/04/05 12:05:34;;;;;;;57.07;2.27;;;;;;;;;;5072224;28;20466;-67
2024/04/05 12:08:00;;;;;;;57.30;2.40;;;;;;;;;;5067885;28;20841;-67
2024/04/05 12:10:27;;;;;;;57.47;2.47;;;;;;;;;;5070893;28;21018;-67
2024/04/05 12:12:53;;;;;;;56.57;2.20;;;;;;;;;;5072031;28;20458;-67
2024/04/05 12:15:20;;;;;;;56.10;2.33;;;;;;;;;;5070822;28;20872;-67
2024/04/05 12:17:48;;;;;;;56.00;2.23;;;;;;;;;;5072509;28;20450;-68
2024/04/05 12:20:15;;;;;;;59.20;2.70;;;;;;;;;;5071733;28;20539;-67
2024/04/05 12:22:41;;;;;;;56.00;2.40;;;;;;;;;;5072293;28;20448;-67
2024/04/05 12:25:09;;;;;;;58.60;2.30;;;;;;;;;;5070245;28;20448;-67
2024/04/05 12:27:36;;;;;;;55.57;2.10;;;;;;;;;;5068328;28;20452;-67
2024/04/05 12:30:04;;;;;;;56.57;2.43;;;;;;;;;;5071563;28;20533;-67
2024/04/05 12:32:30;;;;;;;57.63;2.60;;;;;;;;;;5072352;28;20455;-68
2024/04/05 12:34:58;;;;;;;57.97;2.40;;;;;;;;;;5071386;28;21035;-67
2024/04/05 12:37:27;;;;;;;56.10;2.47;;;;;;;;;;5072614;28;20440;-67
2024/04/05 12:39:55;;;;;;;55.67;1.93;;;;;;;;;;5068092;28;20842;-67
2024/04/05 12:42:21;;;;;;;56.67;2.30;;;;;;;;;;5071832;28;20506;-67
2024/04/05 12:44:49;;;;;;;58.53;2.60;;;;;;;;;;5071623;28;20458;-67
2024/04/05 12:47:15;;;;;;;56.00;2.20;;;;;;;;;;5071628;28;20454;-67
2024/04/05 12:49:43;;;;;;;55.90;2.20;;;;;;;;;;5051991;28;20492;-67
2024/04/05 12:52:10;;;;;;;56.27;2.40;;;;;;;;;;5050766;28;20565;-67
2024/04/05 12:54:38;;;;;;;55.60;2.30;;;;;;;;;;5067339;28;20479;-67
2024/04/05 12:57:04;;;;;;;56.00;2.33;;;;;;;;;;5071759;28;20446;-67
2024/04/05 12:59:31;;;;;;;56.30;2.23;;;;;;;;;;5071507;28;20468;-68
2024/04/05 13:01:57;;;;;;;57.90;2.37;;;;;;;;;;5071017;28;20443;-67
2024/04/05 13:04:24;;;;;;;56.30;2.30;;;;;;;;;;5071291;28;20538;-68
2024/04/05 13:06:50;;;;;;;56.70;2.33;;;;;;;;;;5071483;28;20454;-67
2024/04/05 13:09:19;;;;;;;55.70;1.90;;;;;;;;;;5071391;28;20475;-67
2024/04/05 13:11:45;;;;;;;56.40;2.30;;;;;;;;;;5071038;28;20834;-67
2024/04/05 13:14:12;;;;;;;56.30;2.40;;;;;;;;;;5070961;28;20440;-67
2024/04/05 13:16:38;;;;;;;56.27;2.30;;;;;;;;;;5071160;28;20448;-67
2024/04/05 13:19:05;;;;;;;55.57;1.93;;;;;;;;;;5071577;28;20959;-67
2024/04/05 13:21:31;;;;;;;56.37;2.20;;;;;;;;;;5070835;28;20440;-67
2024/04/05 13:23:59;;;;;;;56.60;2.30;;;;;;;;;;5070867;28;20925;-67
2024/04/05 13:26:26;;;;;;;56.70;2.10;;;;;;;;;;5063001;28;20471;-67
2024/04/05 13:28:54;;;;;;;56.10;2.50;;;;;;;;;;5071143;28;20474;-67
2024/04/05 13:31:21;;;;;;;59.23;2.40;;;;;;;;;;5070506;28;20488;-67
2024/04/05 13:33:49;;;;;;;58.63;2.20;;;;;;;;;;5071568;28;20521;-67
2024/04/05 13:36:15;;;;;;;58.33;2.33;;;;;;;;;;5053232;28;20452;-67
2024/04/05 13:38:43;;;;;;;56.53;2.53;;;;;;;;;;5051155;28;20914;-68
2024/04/05 13:41:09;;;;;;;55.60;2.00;;;;;;;;;;5050712;28;20767;-68
2024/04/05 13:43:38;;;;;;;56.53;2.10;;;;;;;;;;5050921;28;20480;-67
2024/04/05 13:46:06;;;;;;;56.40;2.47;;;;;;;;;;5069276;28;20936;-68
2024/04/05 13:48:33;;;;;;;56.97;2.40;;;;;;;;;;5074435;28;20554;-68
2024/04/05 13:50:59;;;;;;;56.43;2.40;;;;;;;;;;5074271;28;20483;-68
2024/04/05 13:53:28;;;;;;;57.00;2.40;;;;;;;;;;5074739;28;20446;-68
2024/04/05 13:55:54;;;;;;;59.80;2.47;;;;;;;;;;5074517;28;20501;-68
2024/04/05 13:58:21;;;;;;;57.30;3.30;;;;;;;;;;5074246;28;20460;-68
2024/04/05 14:00:49;;;;;;;57.17;2.23;;;;;;;;;;5073802;28;20443;-68
2024/04/05 14:03:16;;;;;;;56.40;2.03;;;;;;;;;;5074299;28;20589;-68
2024/04/05 14:05:42;;;;;;;56.20;2.20;;;;;;;;;;5074314;28;20444;-68
2024/04/05 14:08:09;;;;;;;56.00;2.40;;;;;;;;;;5074119;28;20554;-68
2024/04/05 14:10:35;;;;;;;55.93;2.37;;;;;;;;;;5073634;28;20490;-68
2024/04/05 14:13:03;;;;;;;58.43;2.50;;;;;;;;;;5074001;28;20452;-68
2024/04/05 14:15:29;;;;;;;56.57;2.50;;;;;;;;;;5074112;28;20458;-68
2024/04/05 14:17:58;;;;;;;55.80;2.10;;;;;;;;;;5074288;28;20488;-66
2024/04/05 14:20:24;;;;;;;56.50;2.13;;;;;;;;;;5073674;28;20848;-67
2024/04/05 14:22:51;;;;;;;56.63;2.30;;;;;;;;;;5073647;28;20932;-67
2024/04/05 14:25:17;;;;;;;56.00;2.57;;;;;;;;;;5074095;28;20529;-67
2024/04/05 14:27:44;;;;;;;56.23;2.37;;;;;;;;;;5074091;28;20448;-67
2024/04/05 14:30:11;;;;;;;55.90;2.50;;;;;;;;;;5073210;28;20492;-67
2024/04/05 14:32:38;;;;;;;57.50;2.67;;;;;;;;;;5074108;28;20479;-66
2024/04/05 14:35:06;;;;;;;56.50;2.10;;;;;;;;;;5073984;28;20460;-67